EDDL/DUS METAR and TAF weather

Enter ICAO airport designator
Station Type Date Time Source
EDDL METAR 2021/04/13 06:50 UTC NOAA

EDDL 130650Z 22003KT 9999 FEW030 BKN040 01/M00 Q1032 NOSIG


Station Type Date Time Source
EDDL Decoded METAR 2021/04/13 06:50 UTC NOAA

Duesseldorf, Germany (EDDL) 51-18N 006-46E 41M
Apr 13, 2021 - 02:50 AM EDT / 2021.04.13 0650 UTC
Wind: from the SW (220 degrees) at 3 MPH (3 KT):0
Visibility: greater than 7 mile(s):0
Sky conditions: mostly cloudy
Temperature: 33 F (1 C)
Dew Point: 32 F (0 C)
Relative Humidity: 93%
Pressure (altimeter): 30.47 in. Hg (1032 hPa)
ob: EDDL 130650Z 22003KT 9999 FEW030 BKN040 01/M00 Q1032 NOSIG
cycle: 7

Station Type Date Time Source
EDDL TAF 2021/04/13 06:28 UTC NOAA

TAF EDDL 130500Z 1306/1412 VRB03KT CAVOK
BECMG 1307/1310 31008KT PROB30
TEMPO 1314/1317 SHRA SCT030TCU
BECMG 1318/1321 VRB03KT
BECMG 1408/1411 35007KT

Example: see airport list